Time;durP1;ratioP1;P1;durP2;ratioP2;P2;SDS_P1;SDS_P2;PMS_P1;PMS_P2;Temp;Humidity;BMP_temperature;BMP_pressure;BME280_temperature;BME280_humidity;BME280_pressure;Samples;Min_cycle;Max_cycle;Signal;HPM_P1;HPM_P2
2022/01/25 00:15:25;;;;;;;51.78;28.38;;;;;;;3.66;100.00;102367.97;8447945;27;20394;-60
2022/01/25 00:27:08;;;;;;;53.08;27.45;;;;;;;3.71;100.00;102369.56;8427106;28;20040;-60
2022/01/25 00:31:17;;;;;;;52.80;27.73;;;;;;;3.68;100.00;102372.34;8440350;28;20753;-60
2022/01/25 00:35:17;;;;;;;48.35;27.20;;;;;;;3.65;100.00;102367.09;8456048;28;20046;-60
2022/01/25 00:39:18;;;;;;;50.58;27.10;;;;;;;3.61;100.00;102370.81;8457594;28;20036;-60
2022/01/25 00:43:21;;;;;;;52.38;27.52;;;;;;;3.70;100.00;102364.25;8457728;28;20032;-60
2022/01/25 00:47:24;;;;;;;60.17;27.73;;;;;;;3.66;100.00;102368.81;8452856;28;20111;-60
2022/01/25 00:55:41;;;;;;;61.33;30.38;;;;;;;3.83;100.00;102371.81;8410938;27;20461;-62
2022/01/25 00:59:42;;;;;;;54.30;28.95;;;;;;;3.94;100.00;102377.66;8405622;27;20044;-62
2022/01/25 01:03:43;;;;;;;53.65;29.60;;;;;;;4.02;100.00;102369.34;8386515;27;20032;-62
2022/01/25 01:07:43;;;;;;;50.90;26.17;;;;;;;4.06;100.00;102369.19;8373677;28;20044;-62
2022/01/25 01:12:05;;;;;;;49.08;25.73;;;;;;;4.06;100.00;102376.38;8371186;28;20060;-62
2022/01/25 01:16:36;;;;;;;50.97;26.02;;;;;;;4.04;100.00;102376.44;8356487;28;20041;-62
2022/01/25 01:29:20;;;;;;;49.92;26.85;;;;;;;4.01;100.00;102370.28;8356159;28;20037;-62
2022/01/25 01:39:33;;;;;;;56.90;28.73;;;;;;;3.99;100.00;102377.50;8356486;28;20071;-62
2022/01/25 01:50:50;;;;;;;54.90;28.20;;;;;;;4.06;100.00;102390.59;8425984;27;20452;-60
2022/01/25 01:54:50;;;;;;;61.40;27.52;;;;;;;3.99;100.00;102394.44;8426111;28;20039;-60
2022/01/25 01:58:54;;;;;;;56.80;27.70;;;;;;;4.05;100.00;102380.84;8390613;28;20063;-60
2022/01/25 02:02:54;;;;;;;58.33;28.67;;;;;;;4.09;100.00;102384.28;8381313;28;20169;-60
2022/01/25 02:06:55;;;;;;;61.90;29.17;;;;;;;4.08;100.00;102390.56;8359575;28;20037;-60
2022/01/25 02:10:55;;;;;;;56.08;27.95;;;;;;;4.07;100.00;102387.03;8357986;28;20056;-60
2022/01/25 02:14:56;;;;;;;50.38;26.48;;;;;;;4.09;100.00;102386.97;8380700;28;20033;-60
2022/01/25 02:23:21;;;;;;;53.30;28.08;;;;;;;4.04;100.00;102381.78;8390782;28;20426;-60
2022/01/25 02:27:22;;;;;;;53.25;27.65;;;;;;;4.11;100.00;102371.72;8389789;28;20102;-60
2022/01/25 02:31:22;;;;;;;55.25;28.23;;;;;;;4.01;100.00;102372.97;8382099;28;20051;-60
2022/01/25 02:35:22;;;;;;;54.50;27.85;;;;;;;4.05;100.00;102367.44;8360077;28;20033;-60
2022/01/25 02:39:23;;;;;;;51.63;27.88;;;;;;;4.02;100.00;102367.56;8386908;28;20037;-60
2022/01/25 02:43:25;;;;;;;57.03;26.90;;;;;;;3.98;100.00;102360.59;8391336;28;20043;-60
2022/01/25 02:48:32;;;;;;;50.22;26.73;;;;;;;3.94;100.00;102374.13;8388667;28;20378;-60
2022/01/25 02:51:47;;;;;;;52.92;27.50;;;;;;;3.96;100.00;102372.25;8417029;28;20039;-60
2022/01/25 02:55:48;;;;;;;58.60;27.63;;;;;;;3.95;100.00;102371.41;8424342;28;20028;-60
2022/01/25 02:59:48;;;;;;;55.25;26.30;;;;;;;4.02;100.00;102383.63;8412983;28;20119;-60
2022/01/25 03:03:50;;;;;;;52.40;26.30;;;;;;;4.03;100.00;102363.94;8382202;28;20392;-60
2022/01/25 03:07:50;;;;;;;48.65;26.02;;;;;;;3.97;100.00;102374.00;8353027;28;20067;-60
2022/01/25 03:11:53;;;;;;;48.83;24.45;;;;;;;3.96;100.00;102367.78;8346033;28;20042;-60
2022/01/25 03:15:59;;;;;;;50.92;23.77;;;;;;;3.87;100.00;102351.16;8349502;28;20040;-60
2022/01/25 03:20:06;;;;;;;50.60;23.15;;;;;;;3.83;100.00;102355.75;8366168;28;20124;-61
2022/01/25 03:24:07;;;;;;;46.53;22.60;;;;;;;3.78;100.00;102347.00;8342598;28;20040;-62
2022/01/25 03:28:07;;;;;;;54.50;24.83;;;;;;;3.72;100.00;102341.88;8346923;28;20033;-62
2022/01/25 03:32:08;;;;;;;46.55;21.95;;;;;;;3.72;100.00;102341.88;8331990;28;20516;-62
2022/01/25 03:36:09;;;;;;;44.47;22.25;;;;;;;3.71;100.00;102342.81;8333592;28;20083;-62
2022/01/25 03:40:10;;;;;;;49.95;24.13;;;;;;;3.74;100.00;102340.03;8364629;28;20037;-62
2022/01/25 03:44:11;;;;;;;48.35;24.30;;;;;;;3.69;100.00;102339.31;8366522;28;20037;-62
2022/01/25 03:52:30;;;;;;;48.65;22.95;;;;;;;3.73;100.00;102332.91;8304707;28;20486;-62
2022/01/25 03:56:31;;;;;;;53.72;23.33;;;;;;;3.69;100.00;102336.63;8320790;28;20042;-62
2022/01/25 04:00:34;;;;;;;51.42;24.35;;;;;;;3.59;100.00;102340.56;8324870;28;20046;-62
2022/01/25 04:04:35;;;;;;;49.20;24.15;;;;;;;3.60;100.00;102336.94;8323750;28;20040;-62
2022/01/25 04:08:36;;;;;;;54.33;24.45;;;;;;;3.64;100.00;102341.28;8321481;28;20038;-62
2022/01/25 04:12:37;;;;;;;51.72;24.25;;;;;;;3.62;100.00;102340.44;8312316;28;20044;-62
2022/01/25 04:16:47;;;;;;;53.20;24.58;;;;;;;3.60;100.00;102341.44;8323844;28;20045;-62
2022/01/25 04:25:14;;;;;;;53.78;23.88;;;;;;;3.62;100.00;102340.44;8298415;28;20189;-62
2022/01/25 04:29:14;;;;;;;58.45;25.67;;;;;;;3.60;100.00;102342.28;8314808;28;20049;-62
2022/01/25 04:33:19;;;;;;;51.90;24.02;;;;;;;3.64;100.00;102346.63;8291821;28;20118;-62
2022/01/25 04:51:10;;;;;;;62.00;24.85;;;;;;;3.58;100.00;102338.81;8304939;28;20034;-62
2022/01/25 04:54:52;;;;;;;53.30;24.30;;;;;;;3.56;100.00;102331.75;8314322;28;20054;-62
2022/01/25 04:59:14;;;;;;;63.53;25.83;;;;;;;3.53;100.00;102319.38;8311089;28;20038;-62
2022/01/25 05:03:21;;;;;;;52.67;23.00;;;;;;;3.56;100.00;102327.28;8301820;28;20026;-62
2022/01/25 05:08:00;;;;;;;63.80;26.05;;;;;;;3.58;100.00;102317.41;8292518;28;20038;-62
2022/01/25 05:11:46;;;;;;;72.03;31.05;;;;;;;3.52;100.00;102311.41;8290340;28;20526;-62
2022/01/25 05:24:19;;;;;;;66.85;24.58;;;;;;;3.47;100.00;102308.88;8490509;27;20366;-60
2022/01/25 05:28:19;;;;;;;57.65;24.25;;;;;;;3.42;100.00;102294.78;8483302;27;20408;-60
2022/01/25 05:32:20;;;;;;;68.53;25.38;;;;;;;3.48;100.00;102315.97;8474262;27;20032;-60
2022/01/25 05:36:20;;;;;;;62.15;23.50;;;;;;;3.46;100.00;102317.84;8483414;27;20042;-60
2022/01/25 05:40:39;;;;;;;64.18;25.20;;;;;;;3.52;100.00;102322.97;8493963;27;20490;-62
2022/01/25 05:44:53;;;;;;;56.92;22.85;;;;;;;3.50;100.00;102306.09;8510085;27;20369;-62
2022/01/25 05:48:53;;;;;;;68.60;26.23;;;;;;;3.50;100.00;102315.91;8495900;27;20625;-62
2022/01/25 05:52:54;;;;;;;61.03;23.70;;;;;;;3.46;100.00;102322.31;8465515;27;20046;-62
2022/01/25 05:56:54;;;;;;;61.58;23.63;;;;;;;3.47;100.00;102327.59;8478834;27;20040;-62
2022/01/25 06:00:55;;;;;;;58.55;23.27;;;;;;;3.43;100.00;102323.28;8461589;27;20047;-62
2022/01/25 06:04:55;;;;;;;65.00;24.70;;;;;;;3.30;100.00;102319.25;8467117;27;20036;-62
2022/01/25 06:08:56;;;;;;;72.75;27.33;;;;;;;3.24;100.00;102316.81;8471697;27;20061;-62
2022/01/25 06:12:57;;;;;;;75.40;26.50;;;;;;;3.33;100.00;102324.50;8472212;27;20027;-62
2022/01/25 06:16:57;;;;;;;74.47;24.95;;;;;;;3.33;100.00;102321.81;8478998;27;20502;-62
2022/01/25 06:20:58;;;;;;;72.60;26.60;;;;;;;3.29;100.00;102320.19;8469119;27;20039;-62
2022/01/25 06:24:58;;;;;;;64.50;25.90;;;;;;;3.36;100.00;102316.38;8490675;27;20031;-62
2022/01/25 06:29:00;;;;;;;63.80;25.77;;;;;;;3.32;100.00;102319.19;8480921;27;20051;-62
2022/01/25 06:33:01;;;;;;;79.70;28.70;;;;;;;3.43;100.00;102319.72;8443951;28;20078;-62
2022/01/25 06:37:02;;;;;;;60.30;24.40;;;;;;;4.01;100.00;102323.00;8442158;28;20043;-62
2022/01/25 06:41:02;;;;;;;73.03;26.85;;;;;;;3.62;100.00;102326.19;8466540;28;20179;-63
2022/01/25 06:45:10;;;;;;;78.45;27.25;;;;;;;3.46;100.00;102322.31;8467781;28;20031;-63
2022/01/25 06:49:10;;;;;;;78.13;27.73;;;;;;;3.32;100.00;102320.09;8471510;27;20032;-63
2022/01/25 06:53:10;;;;;;;69.38;25.75;;;;;;;3.31;100.00;102323.69;8438010;28;20032;-63
2022/01/25 06:57:11;;;;;;;75.25;25.80;;;;;;;3.28;100.00;102318.44;8437363;28;20039;-63
2022/01/25 07:01:11;;;;;;;86.75;25.67;;;;;;;3.25;100.00;102323.88;8437401;28;20523;-63
2022/01/25 07:05:12;;;;;;;71.63;24.40;;;;;;;3.20;100.00;102330.31;8468352;27;20418;-63
2022/01/25 07:09:12;;;;;;;81.90;25.45;;;;;;;3.19;100.00;102334.78;8471776;27;20459;-63
2022/01/25 07:13:13;;;;;;;78.13;26.27;;;;;;;3.13;100.00;102337.66;8471856;28;20043;-63
2022/01/25 07:17:13;;;;;;;79.15;24.83;;;;;;;3.09;100.00;102343.13;8471465;27;20498;-63
2022/01/25 07:21:14;;;;;;;81.38;26.85;;;;;;;3.00;100.00;102344.31;8449121;28;20073;-63
2022/01/25 07:25:14;;;;;;;73.13;23.95;;;;;;;3.03;100.00;102351.34;8437153;28;20047;-63
2022/01/25 07:29:15;;;;;;;86.35;26.08;;;;;;;2.94;100.00;102349.84;8436689;28;20421;-63
2022/01/25 07:33:15;;;;;;;78.50;24.13;;;;;;;3.03;100.00;102352.22;8462049;28;20043;-63
2022/01/25 07:37:16;;;;;;;65.82;20.90;;;;;;;3.00;100.00;102344.31;8470585;27;20058;-63
2022/01/25 07:41:17;;;;;;;73.20;23.15;;;;;;;2.92;100.00;102346.34;8469009;28;20036;-63
2022/01/25 07:45:17;;;;;;;72.20;23.02;;;;;;;2.89;100.00;102340.19;8470615;27;20031;-63
2022/01/25 07:49:18;;;;;;;68.85;22.85;;;;;;;2.93;100.00;102345.41;8463668;28;20093;-63
2022/01/25 07:53:18;;;;;;;68.85;22.73;;;;;;;2.94;100.00;102339.16;8435992;28;20048;-63
2022/01/25 07:57:19;;;;;;;71.10;23.90;;;;;;;2.84;100.00;102336.81;8435708;28;20047;-63
2022/01/25 08:01:20;;;;;;;70.57;21.55;;;;;;;2.90;100.00;102334.81;8434541;28;20054;-63
2022/01/25 08:05:21;;;;;;;68.45;22.27;;;;;;;2.94;100.00;102333.81;8466905;27;20032;-63
2022/01/25 08:09:22;;;;;;;70.82;22.67;;;;;;;2.91;100.00;102336.59;8468078;27;20035;-63
2022/01/25 08:13:22;;;;;;;60.95;23.33;;;;;;;2.85;100.00;102334.09;8468292;28;20035;-63
2022/01/25 08:17:23;;;;;;;69.53;23.67;;;;;;;2.89;100.00;102338.41;8466868;27;20036;-63
2022/01/25 08:21:25;;;;;;;67.03;21.67;;;;;;;2.97;100.00;102344.41;8445900;28;20088;-63
2022/01/25 08:25:25;;;;;;;62.95;23.40;;;;;;;2.96;100.00;102347.13;8432268;28;20032;-63
2022/01/25 08:29:26;;;;;;;65.03;22.05;;;;;;;2.96;100.00;102342.63;8433583;28;20040;-63
2022/01/25 08:33:26;;;;;;;60.80;22.38;;;;;;;3.01;100.00;102338.03;8431552;28;20027;-63
2022/01/25 08:37:27;;;;;;;70.22;22.05;;;;;;;3.00;100.00;102349.66;8448742;27;20490;-63
2022/01/25 08:41:27;;;;;;;70.10;22.48;;;;;;;3.05;100.00;102341.50;8465001;28;20043;-63
2022/01/25 08:45:28;;;;;;;64.72;21.52;;;;;;;3.04;100.00;102340.63;8467104;28;20032;-63
2022/01/25 08:49:30;;;;;;;60.33;20.25;;;;;;;2.99;100.00;102347.88;8464048;28;20028;-63
2022/01/25 08:53:31;;;;;;;64.50;21.50;;;;;;;3.01;100.00;102356.75;8466360;28;20038;-63
2022/01/25 08:57:31;;;;;;;65.68;20.17;;;;;;;3.01;100.00;102355.84;8465356;27;20042;-63
2022/01/25 09:01:32;;;;;;;64.40;21.00;;;;;;;2.97;100.00;102362.22;8467587;28;20050;-63
2022/01/25 09:05:33;;;;;;;62.80;20.90;;;;;;;2.96;100.00;102379.19;8466979;28;20415;-63
2022/01/25 09:09:33;;;;;;;67.45;21.25;;;;;;;2.95;100.00;102372.97;8464171;28;20035;-63
2022/01/25 09:13:35;;;;;;;66.55;19.90;;;;;;;2.91;100.00;102375.75;8467946;28;20035;-63
2022/01/25 09:17:35;;;;;;;63.78;19.80;;;;;;;2.95;100.00;102378.28;8465408;28;20027;-63
2022/01/25 09:21:36;;;;;;;62.72;20.15;;;;;;;2.98;100.00;102382.66;8467133;28;20058;-63
2022/01/25 09:25:36;;;;;;;63.28;20.33;;;;;;;2.98;100.00;102377.31;8465362;28;20547;-63
2022/01/25 09:29:37;;;;;;;69.78;20.92;;;;;;;2.97;100.00;102375.59;8465034;28;20445;-63
2022/01/25 09:33:37;;;;;;;72.40;21.85;;;;;;;2.89;100.00;102382.94;8464051;28;20032;-63
2022/01/25 09:37:38;;;;;;;73.85;20.65;;;;;;;2.98;100.00;102378.22;8448906;28;20040;-63
2022/01/25 09:41:38;;;;;;;71.70;21.10;;;;;;;3.04;100.00;102383.34;8429820;28;20062;-63
2022/01/25 09:45:39;;;;;;;88.95;24.42;;;;;;;3.02;100.00;102382.53;8428230;28;20441;-63
2022/01/25 09:49:40;;;;;;;94.05;24.10;;;;;;;3.11;100.00;102384.91;8452601;28;20765;-63
2022/01/25 09:53:40;;;;;;;71.43;21.67;;;;;;;3.17;100.00;102389.22;8464581;28;20093;-63
2022/01/25 09:57:41;;;;;;;93.78;22.58;;;;;;;3.15;100.00;102391.94;8464522;28;20024;-63
2022/01/25 10:01:42;;;;;;;79.32;23.02;;;;;;;3.04;100.00;102383.34;8462641;28;20061;-63
2022/01/25 10:05:45;;;;;;;84.97;23.58;;;;;;;3.15;100.00;102407.06;8437520;28;20056;-63
2022/01/25 10:09:46;;;;;;;78.70;21.45;;;;;;;3.15;100.00;102412.41;8435114;28;20028;-63
2022/01/25 10:13:50;;;;;;;86.88;22.45;;;;;;;3.19;100.00;102409.59;8459729;28;20035;-63
2022/01/25 10:17:51;;;;;;;79.72;23.85;;;;;;;3.16;100.00;102409.69;8469992;27;20039;-63
2022/01/25 10:21:52;;;;;;;93.72;25.10;;;;;;;3.13;100.00;102403.56;8445048;27;20039;-63
2022/01/25 10:25:52;;;;;;;78.05;23.80;;;;;;;3.14;100.00;102406.19;8435124;28;20403;-63
2022/01/25 10:29:53;;;;;;;83.05;24.40;;;;;;;3.16;100.00;102407.03;8435568;28;20051;-63
2022/01/25 10:33:55;;;;;;;81.78;23.65;;;;;;;3.38;100.00;102404.53;8437729;28;20032;-63
2022/01/25 10:37:56;;;;;;;80.25;24.63;;;;;;;3.40;100.00;102402.69;8444835;28;20036;-63
2022/01/25 10:42:07;;;;;;;88.60;25.13;;;;;;;3.37;100.00;102398.34;8466277;27;20642;-63
2022/01/25 10:46:23;;;;;;;86.35;24.80;;;;;;;3.37;100.00;102403.69;8450140;28;20122;-63
2022/01/25 10:50:31;;;;;;;86.20;24.85;;;;;;;3.41;100.00;102397.31;8451200;27;20052;-63
2022/01/25 10:54:38;;;;;;;81.72;23.83;;;;;;;3.37;100.00;102398.34;8442446;28;20040;-63
2022/01/25 10:58:42;;;;;;;84.82;24.05;;;;;;;3.38;100.00;102400.06;8453437;28;20487;-63
2022/01/25 11:02:51;;;;;;;94.93;24.80;;;;;;;3.43;100.00;102392.78;8461275;28;20035;-63
2022/01/25 11:06:56;;;;;;;90.60;22.38;;;;;;;3.48;100.00;102381.94;8435157;28;20113;-63
2022/01/25 11:11:00;;;;;;;83.22;23.55;;;;;;;3.44;100.00;102389.19;8446839;28;20122;-63
2022/01/25 11:15:00;;;;;;;94.93;22.98;;;;;;;3.51;100.00;102385.38;8450091;28;20039;-63
2022/01/25 11:19:01;;;;;;;93.65;25.05;;;;;;;3.57;100.00;102382.50;8439354;27;20712;-63
2022/01/25 11:23:01;;;;;;;82.65;22.08;;;;;;;3.71;100.00;102376.69;8451503;27;20456;-63
2022/01/25 11:27:05;;;;;;;89.43;23.33;;;;;;;3.74;100.00;102372.13;8431301;28;20036;-63
2022/01/25 11:31:09;;;;;;;100.65;26.73;;;;;;;3.73;100.00;102374.84;8430869;28;20036;-63
2022/01/25 11:35:13;;;;;;;97.38;25.77;;;;;;;3.70;100.00;102380.31;8431519;28;20039;-63
2022/01/25 11:39:20;;;;;;;88.22;24.90;;;;;;;3.78;100.00;102376.44;8460526;27;20114;-63
2022/01/25 11:43:20;;;;;;;97.18;26.42;;;;;;;4.08;100.00;102375.38;8463944;28;20035;-63
2022/01/25 11:47:30;;;;;;;93.05;24.08;;;;;;;4.00;100.00;102379.25;8462282;27;20088;-63
2022/01/25 11:51:31;;;;;;;94.60;26.38;;;;;;;3.97;100.00;102374.88;8454928;27;20080;-63
2022/01/25 11:55:43;;;;;;;90.60;26.55;;;;;;;3.98;100.00;102376.63;8465778;27;20191;-63
2022/01/25 11:59:54;;;;;;;96.97;29.17;;;;;;;3.90;100.00;102384.03;8443299;28;20113;-63
2022/01/25 12:03:58;;;;;;;94.97;27.40;;;;;;;3.96;100.00;102367.78;8430852;28;20032;-63
2022/01/25 12:08:15;;;;;;;;;;;;;;;3.98;100.00;102375.75;8430931;28;20032;-63
2022/01/25 12:12:17;;;;;;;98.28;26.25;;;;;;;4.12;100.00;102372.59;8441163;28;20349;-63
2022/01/25 12:16:27;;;;;;;82.03;23.05;;;;;;;4.02;100.00;102366.69;8464923;27;20039;-63
2022/01/25 12:20:28;;;;;;;97.25;25.90;;;;;;;4.01;100.00;102363.16;8452749;28;20441;-63
2022/01/25 12:24:49;;;;;;;101.63;27.30;;;;;;;4.16;100.00;102358.16;8463945;28;20035;-63
2022/01/25 12:28:50;;;;;;;100.13;28.20;;;;;;;4.15;100.00;102356.44;8463736;28;20132;-63
2022/01/25 12:37:03;;;;;;;97.95;27.23;;;;;;;4.03;100.00;102363.09;8367257;27;20999;-61
2022/01/25 12:41:15;;;;;;;96.90;26.67;;;;;;;3.96;100.00;102357.06;8357812;28;20416;-63
2022/01/25 12:45:17;;;;;;;108.30;30.50;;;;;;;4.07;100.00;102354.91;8358302;28;20393;-63
2022/01/25 12:49:25;;;;;;;103.03;28.10;;;;;;;4.21;100.00;102356.22;8358157;28;20038;-63
2022/01/25 12:53:28;;;;;;;99.13;26.42;;;;;;;4.20;100.00;102354.47;8390531;28;20128;-63
2022/01/25 12:57:29;;;;;;;95.88;29.30;;;;;;;4.13;100.00;102352.91;8389261;28;20412;-63
2022/01/25 13:01:31;;;;;;;107.35;28.90;;;;;;;4.21;100.00;102345.50;8392873;27;20098;-63
2022/01/25 13:05:41;;;;;;;94.72;27.05;;;;;;;4.25;100.00;102339.09;8385677;28;20247;-63
2022/01/25 13:09:46;;;;;;;100.47;30.15;;;;;;;4.37;100.00;102333.28;8390231;28;20039;-63
2022/01/25 13:14:17;;;;;;;103.22;30.10;;;;;;;4.53;100.00;102327.31;8389150;28;20092;-63
2022/01/25 13:18:11;;;;;;;100.72;31.15;;;;;;;4.44;100.00;102321.41;8388711;28;20862;-63
2022/01/25 13:22:18;;;;;;;105.50;30.75;;;;;;;4.50;100.00;102315.81;8387612;28;20036;-63
2022/01/25 13:26:20;;;;;;;102.40;27.85;;;;;;;4.49;100.00;102300.69;8389507;28;20045;-63
2022/01/25 13:30:56;;;;;;;100.00;30.58;;;;;;;4.63;100.00;102307.25;8390352;28;20041;-63
2022/01/25 13:35:31;;;;;;;109.68;31.63;;;;;;;4.60;100.00;102306.53;8389331;28;20072;-63
2022/01/25 13:39:35;;;;;;;101.00;29.75;;;;;;;4.68;100.00;102304.41;8415943;28;20087;-63
2022/01/25 13:48:04;;;;;;;91.07;27.60;;;;;;;4.74;100.00;102304.16;8423423;27;20830;-61
2022/01/25 13:52:04;;;;;;;98.22;30.88;;;;;;;4.71;100.00;102296.25;8393877;28;20108;-63
2022/01/25 13:56:09;;;;;;;100.05;30.45;;;;;;;4.76;100.00;102296.94;8389465;28;20094;-63
2022/01/25 14:00:11;;;;;;;;;;;;;;;4.89;100.00;102296.41;8360483;28;20034;-63
2022/01/25 14:04:19;;;;;;;87.28;28.77;;;;;;;4.73;100.00;102289.88;8355683;28;19928;-63
2022/01/25 14:08:41;;;;;;;87.20;29.25;;;;;;;4.66;100.00;102290.22;8347718;28;20041;-63
2022/01/25 14:22:47;;;;;;;89.90;30.83;;;;;;;4.83;100.00;102301.13;8366655;28;20045;-63
2022/01/25 14:26:00;;;;;;;91.22;29.48;;;;;;;4.78;100.00;102287.03;8361141;28;20060;-63
2022/01/25 14:30:00;;;;;;;86.65;31.75;;;;;;;4.87;100.00;102297.38;8357924;28;20051;-63
2022/01/25 14:34:01;;;;;;;87.47;30.42;;;;;;;4.95;100.00;102293.50;8352487;28;20524;-63
2022/01/25 14:38:02;;;;;;;102.88;33.38;;;;;;;5.05;100.00;102291.28;8359555;28;20037;-63
2022/01/25 14:42:10;;;;;;;91.40;31.13;;;;;;;4.94;100.00;102290.88;8353512;28;20040;-63
2022/01/25 14:46:15;;;;;;;95.25;32.47;;;;;;;4.88;100.00;102291.13;8347324;28;20050;-63
2022/01/25 14:50:19;;;;;;;93.78;32.20;;;;;;;4.90;100.00;102283.84;8353522;28;20060;-63
2022/01/25 14:54:25;;;;;;;97.43;34.10;;;;;;;4.92;100.00;102284.69;8348640;28;20041;-63
2022/01/25 14:59:25;;;;;;;82.93;30.58;;;;;;;4.89;100.00;102287.50;8333657;28;20090;-63
2022/01/25 15:02:47;;;;;;;91.38;32.72;;;;;;;4.93;100.00;102279.25;8350882;28;20049;-63
2022/01/25 15:06:48;;;;;;;81.18;31.23;;;;;;;4.93;100.00;102276.59;8344821;28;20411;-63
2022/01/25 15:10:48;;;;;;;82.32;28.25;;;;;;;4.99;100.00;102278.13;8338043;28;20820;-63
2022/01/25 15:14:53;;;;;;;88.00;32.38;;;;;;;5.01;100.00;102284.31;8322392;28;20434;-63
2022/01/25 15:18:54;;;;;;;86.55;30.30;;;;;;;5.03;100.00;102285.13;8316837;28;20084;-63
2022/01/25 15:22:54;;;;;;;88.07;33.03;;;;;;;4.99;100.00;102292.41;8339013;28;20493;-63
2022/01/25 15:26:57;;;;;;;88.50;32.70;;;;;;;4.97;100.00;102288.06;8329601;28;20299;-63
2022/01/25 15:30:58;;;;;;;86.43;31.52;;;;;;;4.94;100.00;102285.50;8328858;28;20042;-63
2022/01/25 15:34:58;;;;;;;100.35;36.38;;;;;;;4.94;100.00;102285.50;8316673;28;20048;-63
2022/01/25 15:38:58;;;;;;;99.20;34.35;;;;;;;4.84;100.00;102289.47;8310415;28;20038;-63
2022/01/25 15:43:01;;;;;;;85.88;31.33;;;;;;;4.99;100.00;102286.19;8317961;28;20567;-65
2022/01/25 15:47:02;;;;;;;93.25;34.05;;;;;;;4.95;100.00;102284.56;8316262;28;20553;-66
2022/01/25 15:51:03;;;;;;;99.57;33.78;;;;;;;4.86;100.00;102290.28;8312752;28;20467;-65
2022/01/25 15:55:03;;;;;;;92.82;33.03;;;;;;;4.86;100.00;102288.50;8316952;28;20060;-66
2022/01/25 15:59:04;;;;;;;106.55;34.90;;;;;;;4.82;100.00;102275.28;8317166;28;20046;-66
2022/01/25 16:03:05;;;;;;;97.30;33.08;;;;;;;4.79;100.00;102264.69;8367296;28;20063;-66
2022/01/25 16:07:05;;;;;;;95.32;36.28;;;;;;;4.80;100.00;102266.41;8333675;28;20053;-65
2022/01/25 16:11:13;;;;;;;97.40;35.50;;;;;;;4.77;100.00;102271.91;8333346;28;20120;-66
2022/01/25 16:15:14;;;;;;;89.57;34.58;;;;;;;4.75;100.00;102265.72;8300256;28;20037;-66
2022/01/25 16:19:15;;;;;;;84.32;34.75;;;;;;;4.82;100.00;102264.56;8303561;28;20039;-66
2022/01/25 16:23:16;;;;;;;100.60;37.78;;;;;;;4.83;100.00;102277.00;8332850;28;20056;-66
2022/01/25 16:27:16;;;;;;;88.85;33.83;;;;;;;4.83;100.00;102271.66;8325721;28;20072;-66
2022/01/25 16:31:28;;;;;;;94.53;35.13;;;;;;;4.80;100.00;102266.41;8311778;28;20056;-65
2022/01/25 16:35:28;;;;;;;82.18;32.40;;;;;;;4.77;99.82;102269.22;8311868;28;20037;-65
2022/01/25 16:39:29;;;;;;;92.97;35.10;;;;;;;4.81;99.53;102269.03;8317073;28;20497;-65
2022/01/25 16:43:29;;;;;;;77.88;29.98;;;;;;;4.81;97.75;102273.50;8319492;28;20132;-65
2022/01/25 16:47:32;;;;;;;78.72;30.92;;;;;;;4.83;97.02;102279.69;8307114;28;20056;-65
2022/01/25 16:51:32;;;;;;;94.80;37.80;;;;;;;4.80;97.72;102271.78;8311707;28;20049;-64
2022/01/25 16:55:33;;;;;;;82.20;31.83;;;;;;;4.77;99.09;102272.78;8308976;28;20076;-65
2022/01/25 16:59:35;;;;;;;85.80;32.22;;;;;;;4.73;99.61;102275.63;8344227;28;20071;-64
2022/01/25 17:03:37;;;;;;;88.35;33.25;;;;;;;4.77;99.77;102266.53;8346377;28;20060;-64
2022/01/25 17:07:39;;;;;;;91.90;34.03;;;;;;;4.78;100.00;102268.28;8337159;28;20087;-64
2022/01/25 17:11:41;;;;;;;89.95;34.22;;;;;;;4.80;99.50;102271.78;8327405;28;20042;-64
2022/01/25 17:15:41;;;;;;;99.00;37.22;;;;;;;4.74;100.00;102270.22;8331042;28;20037;-64
2022/01/25 17:19:42;;;;;;;99.88;36.22;;;;;;;4.75;99.33;102280.00;8319902;28;20040;-65
2022/01/25 17:23:42;;;;;;;97.15;35.70;;;;;;;4.71;98.89;102266.78;8331825;28;20061;-64
2022/01/25 17:27:43;;;;;;;97.68;33.58;;;;;;;4.75;99.73;102279.09;8333029;28;20041;-64
2022/01/25 17:31:45;;;;;;;80.43;33.55;;;;;;;4.76;97.35;102270.16;8314428;28;20439;-64
2022/01/25 17:35:45;;;;;;;82.40;30.92;;;;;;;4.79;97.30;102278.06;8294771;28;21639;-64
2022/01/25 17:39:46;;;;;;;79.57;28.35;;;;;;;4.74;95.78;102274.69;8295655;28;20128;-64
2022/01/25 17:43:46;;;;;;;81.95;32.20;;;;;;;4.78;97.28;102268.28;8311169;28;20460;-64
2022/01/25 17:47:47;;;;;;;77.15;30.90;;;;;;;4.72;99.58;102279.22;8319519;28;20044;-64
2022/01/25 17:51:48;;;;;;;85.93;31.38;;;;;;;4.73;99.00;102275.63;8329005;28;20040;-64
2022/01/25 17:55:49;;;;;;;77.38;29.25;;;;;;;4.78;97.68;102279.00;8333566;28;20029;-64
2022/01/25 17:59:50;;;;;;;86.35;32.28;;;;;;;4.76;98.27;102275.53;8332246;28;20153;-64
2022/01/25 18:03:50;;;;;;;93.97;35.47;;;;;;;4.82;99.55;102277.97;8325536;28;20041;-64
2022/01/25 18:07:51;;;;;;;84.25;32.42;;;;;;;4.71;99.91;102272.13;8336396;28;20374;-64
2022/01/25 18:11:52;;;;;;;87.13;33.72;;;;;;;4.68;100.00;102277.63;8337743;28;20043;-64
2022/01/25 18:15:52;;;;;;;80.68;30.63;;;;;;;4.68;99.42;102272.25;8334511;28;20034;-65
2022/01/25 18:19:53;;;;;;;76.32;31.15;;;;;;;4.65;98.09;102272.38;8323146;28;20061;-64
2022/01/25 18:24:05;;;;;;;79.70;29.70;;;;;;;4.66;97.63;102280.34;8322674;28;20535;-64
2022/01/25 18:28:10;;;;;;;79.93;30.77;;;;;;;4.70;97.80;102273.09;8301733;28;20134;-64
2022/01/25 18:32:13;;;;;;;89.72;31.90;;;;;;;4.69;98.57;102279.34;8336769;28;20071;-64
2022/01/25 18:36:13;;;;;;;81.43;30.65;;;;;;;4.61;97.47;102286.84;8375640;28;20037;-64
2022/01/25 18:40:14;;;;;;;71.20;26.70;;;;;;;4.57;96.87;102280.72;8354480;28;20123;-64
2022/01/25 18:44:14;;;;;;;74.22;27.90;;;;;;;4.63;96.53;102282.31;8352686;28;20084;-64
2022/01/25 18:48:17;;;;;;;68.55;26.25;;;;;;;4.57;96.40;102277.19;8333775;28;20052;-64
2022/01/25 18:52:17;;;;;;;78.30;27.27;;;;;;;4.56;96.90;102281.66;8328438;28;20042;-64
2022/01/25 18:56:18;;;;;;;75.47;28.55;;;;;;;4.55;96.74;102287.97;8360153;28;20037;-64
2022/01/25 19:00:19;;;;;;;73.97;28.40;;;;;;;4.59;97.63;102277.97;8326832;28;20503;-65
2022/01/25 19:04:20;;;;;;;75.93;28.55;;;;;;;4.60;98.11;102277.06;8326981;28;20072;-64
2022/01/25 19:08:21;;;;;;;70.45;27.45;;;;;;;4.59;98.44;102272.63;8327691;28;20493;-64
2022/01/25 19:12:21;;;;;;;65.93;26.00;;;;;;;4.60;97.27;102285.09;8310707;28;20041;-64
2022/01/25 19:16:22;;;;;;;70.50;28.00;;;;;;;4.51;97.65;102280.94;8327958;28;20444;-64
2022/01/25 19:20:24;;;;;;;75.22;28.33;;;;;;;4.56;97.38;102278.09;8327968;28;20090;-64
2022/01/25 19:24:25;;;;;;;72.78;25.23;;;;;;;4.55;96.43;102281.72;8326170;28;20045;-64
2022/01/25 19:28:25;;;;;;;67.25;27.48;;;;;;;4.62;95.96;102268.03;8303733;28;20096;-64
2022/01/25 19:32:27;;;;;;;57.45;22.42;;;;;;;4.60;95.89;102271.72;8339262;28;20041;-64
2022/01/25 19:36:27;;;;;;;58.47;23.52;;;;;;;4.58;95.92;102276.25;8340377;28;20430;-64
2022/01/25 19:40:33;;;;;;;62.97;24.90;;;;;;;4.61;95.62;102276.13;8319719;28;20443;-65
2022/01/25 19:44:34;;;;;;;60.00;23.63;;;;;;;4.60;95.41;102285.09;8340207;28;20045;-64
2022/01/25 19:48:35;;;;;;;65.28;24.42;;;;;;;4.59;95.80;102283.34;8326345;28;20065;-64
2022/01/25 19:52:42;;;;;;;63.00;24.95;;;;;;;4.54;95.77;102279.97;8330721;28;20048;-64
2022/01/25 19:56:52;;;;;;;61.13;26.00;;;;;;;4.55;95.99;102277.25;8355508;28;20035;-64
2022/01/25 20:00:52;;;;;;;68.00;25.35;;;;;;;4.53;96.69;102279.09;8356451;28;20504;-64
2022/01/25 20:04:53;;;;;;;67.88;25.52;;;;;;;4.55;96.88;102273.69;8340546;28;20467;-64
2022/01/25 20:08:54;;;;;;;74.18;27.48;;;;;;;4.51;96.91;102274.75;8337947;28;20040;-64